createdAt,value
2022-10-18T16:02:02.879Z,23.00
2022-10-18T16:03:35.189Z,25.60
2022-10-18T16:05:08.844Z,23.20
2022-10-18T16:06:40.590Z,22.40
2022-10-18T16:08:23.313Z,22.00
2022-10-18T16:09:54.998Z,16.80
2022-10-18T16:11:26.735Z,19.40
2022-10-18T16:12:58.544Z,20.20
2022-10-18T16:14:30.547Z,21.60
2022-10-18T16:16:02.532Z,22.20
2022-10-18T16:17:34.372Z,22.80
2022-10-18T16:19:06.425Z,25.40
2022-10-18T16:20:38.196Z,27.20
2022-10-18T16:23:50.698Z,31.20
2022-10-18T16:25:25.527Z,33.80
2022-10-18T16:26:57.342Z,34.20
2022-10-18T16:28:31.825Z,35.20
2022-10-18T16:30:14.327Z,36.20
2022-10-18T16:31:46.795Z,42.00
2022-10-18T16:33:21.429Z,41.00
2022-10-18T16:34:53.505Z,43.25
2022-10-18T16:36:31.828Z,44.75
2022-10-18T16:38:03.495Z,44.75
2022-10-18T16:39:35.653Z,43.50
2022-10-18T16:41:08.052Z,48.00
2022-10-18T16:42:39.747Z,51.50
2022-10-18T16:44:13.037Z,52.00
2022-10-18T16:45:44.919Z,60.25
2022-10-18T16:47:16.815Z,65.75
2022-10-18T16:48:49.178Z,64.25
2022-10-18T16:50:22.237Z,64.75
2022-10-18T16:51:54.313Z,65.75
2022-10-18T16:53:26.367Z,64.00
2022-10-18T16:54:58.063Z,70.50
2022-10-18T16:56:31.138Z,71.60
2022-10-18T16:58:03.037Z,71.50
2022-10-18T16:59:34.834Z,69.80
2022-10-18T17:01:08.881Z,80.20
2022-10-18T17:02:40.924Z,75.20
2022-10-18T17:04:12.594Z,80.40
2022-10-18T17:05:44.321Z,79.60
2022-10-18T17:08:58.530Z,183.75
2022-10-18T17:10:30.412Z,186.25
2022-10-18T17:12:02.105Z,184.50
2022-10-18T17:13:33.873Z,149.33
2022-10-18T17:15:06.107Z,125.25
2022-10-18T17:16:38.904Z,112.00
2022-10-18T17:18:12.911Z,112.50
2022-10-18T17:19:44.655Z,114.25
2022-10-18T17:21:16.431Z,104.75
2022-10-18T17:22:48.367Z,110.50
2022-10-18T17:24:20.304Z,100.00
2022-10-18T17:26:04.887Z,109.75
2022-10-18T17:27:40.620Z,101.75
2022-10-18T17:29:12.456Z,102.00
2022-10-18T17:30:44.797Z,104.25
2022-10-18T17:32:16.705Z,94.50
2022-10-18T17:33:48.651Z,97.75
2022-10-18T17:35:21.643Z,92.50
2022-10-18T17:36:54.356Z,90.75
2022-10-18T17:38:26.124Z,92.00
2022-10-18T17:39:57.854Z,91.50
2022-10-18T17:41:29.693Z,96.00
2022-10-18T17:43:01.933Z,92.25
2022-10-18T17:44:33.682Z,94.25
2022-10-18T17:46:05.677Z,92.50
2022-10-18T17:47:37.512Z,95.50
2022-10-18T17:49:10.459Z,87.25
2022-10-18T17:50:42.183Z,92.75
2022-10-18T17:52:13.942Z,90.00
2022-10-18T17:53:45.772Z,97.00
2022-10-18T17:55:17.679Z,94.50
2022-10-18T17:56:52.334Z,95.25
2022-10-18T17:58:26.196Z,98.75
2022-10-18T17:59:59.555Z,95.25
2022-10-18T18:01:31.411Z,94.50
2022-10-18T18:03:03.253Z,98.50
2022-10-18T18:04:34.957Z,101.25
2022-10-18T18:06:13.669Z,108.75
2022-10-18T18:07:46.002Z,106.50
2022-10-18T18:09:17.775Z,108.00
2022-10-18T18:10:54.294Z,100.00
2022-10-18T18:12:26.126Z,101.25
2022-10-18T18:13:58.064Z,99.00
2022-10-18T18:15:29.816Z,103.25
2022-10-18T18:17:01.967Z,106.50
2022-10-18T18:18:33.700Z,104.00
2022-10-18T18:20:06.621Z,104.00
2022-10-18T18:21:39.081Z,113.00
2022-10-18T18:23:10.808Z,108.75
2022-10-18T18:24:42.776Z,109.50
2022-10-18T18:26:14.679Z,115.25
2022-10-18T18:27:46.377Z,106.75
2022-10-18T18:29:18.160Z,111.25
2022-10-18T18:30:49.868Z,107.25
2022-10-18T18:32:21.663Z,114.75
2022-10-18T18:33:55.402Z,111.75
2022-10-18T18:35:27.126Z,116.75
2022-10-18T18:36:58.772Z,106.75
2022-10-18T18:38:31.099Z,114.00
2022-10-18T18:40:02.829Z,113.00
2022-10-18T18:41:34.978Z,119.50
2022-10-18T18:43:22.621Z,108.50
2022-10-18T18:44:58.539Z,114.25
2022-10-18T18:46:33.185Z,120.00
2022-10-18T18:48:05.185Z,111.50
2022-10-18T18:49:36.931Z,121.25
2022-10-18T18:51:11.165Z,114.75
2022-10-18T18:52:42.932Z,103.50
2022-10-18T18:54:14.984Z,112.75
2022-10-18T18:55:46.712Z,108.50
2022-10-18T18:57:18.396Z,113.25
2022-10-18T18:58:50.341Z,108.50
2022-10-18T19:00:22.100Z,110.00
2022-10-18T19:01:54.002Z,104.75
2022-10-18T19:03:25.875Z,113.25
2022-10-18T19:04:57.626Z,111.25
2022-10-18T19:06:30.220Z,106.25
2022-10-18T19:08:02.627Z,114.25
2022-10-18T19:09:37.911Z,107.00
2022-10-18T19:11:12.337Z,110.50
2022-10-18T19:12:44.123Z,121.75
2022-10-18T19:14:15.896Z,108.75
2022-10-18T19:15:48.931Z,110.50
2022-10-18T19:17:21.959Z,115.25
2022-10-18T19:19:14.879Z,116.25
2022-10-18T19:20:46.741Z,117.25
2022-10-18T19:22:18.487Z,114.25
2022-10-18T19:23:50.471Z,118.00
2022-10-18T19:25:24.758Z,116.25
2022-10-18T19:27:12.680Z,126.50
2022-10-18T19:28:44.451Z,118.00
2022-10-18T19:30:16.274Z,116.50
2022-10-18T19:31:48.454Z,113.75
2022-10-18T19:33:35.543Z,118.75
2022-10-18T19:35:14.066Z,113.50
2022-10-18T19:36:46.876Z,114.75
2022-10-18T19:38:18.675Z,111.50
2022-10-18T19:39:50.402Z,113.00
2022-10-18T19:42:55.548Z,162.33
2022-10-18T19:44:29.583Z,158.00
2022-10-18T19:46:04.790Z,155.67
2022-10-18T19:47:38.439Z,132.67
2022-10-18T19:49:10.329Z,122.33
2022-10-18T19:50:41.980Z,106.00
2022-10-18T19:52:13.855Z,109.50
2022-10-18T19:53:45.525Z,116.25
2022-10-18T19:55:18.862Z,106.25
2022-10-18T19:56:50.719Z,106.50
2022-10-18T19:58:22.380Z,99.75
2022-10-18T19:59:56.065Z,101.00
2022-10-18T20:01:28.634Z,103.00
2022-10-18T20:03:00.362Z,104.25
2022-10-18T20:04:34.685Z,105.00
2022-10-18T20:06:06.505Z,103.50
2022-10-18T20:07:41.174Z,97.25
2022-10-18T20:09:16.189Z,101.25
2022-10-18T20:10:51.276Z,107.00
2022-10-18T20:12:22.976Z,92.25
2022-10-18T20:13:54.864Z,98.00
2022-10-18T20:15:27.614Z,95.00
2022-10-18T20:16:59.547Z,90.50
2022-10-18T20:18:31.306Z,96.75
2022-10-18T20:20:03.107Z,86.25
2022-10-18T20:21:35.993Z,95.75
2022-10-18T20:23:08.007Z,88.25
2022-10-18T20:24:39.842Z,94.00
2022-10-18T20:26:18.190Z,92.75
2022-10-18T20:27:51.537Z,95.50
2022-10-18T20:29:25.318Z,86.75
2022-10-18T20:31:13.216Z,97.75
2022-10-18T20:32:44.890Z,93.00
2022-10-18T20:34:16.663Z,85.50
2022-10-18T20:35:52.086Z,93.50
2022-10-18T20:37:24.079Z,92.00
2022-10-18T20:38:56.016Z,96.25
2022-10-18T20:40:27.781Z,93.75
2022-10-18T20:41:59.482Z,99.75
2022-10-18T20:43:31.238Z,99.50
2022-10-18T20:46:40.726Z,91.75
2022-10-18T20:48:12.475Z,84.50
2022-10-18T20:49:44.567Z,87.00
2022-10-18T20:51:17.127Z,87.00
2022-10-18T20:52:51.330Z,89.50
2022-10-18T20:54:23.162Z,88.25
2022-10-18T20:56:11.415Z,84.75
2022-10-18T20:57:43.333Z,91.50
2022-10-18T20:59:15.537Z,82.00
2022-10-18T21:00:47.349Z,89.50
2022-10-18T21:02:19.168Z,86.75
2022-10-18T21:03:51.810Z,91.25
2022-10-18T21:05:23.497Z,88.00
2022-10-18T21:06:55.241Z,90.25
2022-10-18T21:08:26.960Z,90.50
2022-10-18T21:09:58.700Z,89.00
2022-10-18T21:11:30.757Z,89.50
2022-10-18T21:13:02.589Z,94.75
2022-10-18T21:14:34.323Z,94.25
2022-10-18T21:16:06.284Z,91.25
2022-10-18T21:17:38.015Z,91.00
2022-10-18T21:19:14.649Z,93.25
2022-10-18T21:20:46.363Z,90.25
2022-10-18T21:22:18.071Z,95.25
2022-10-18T21:23:50.299Z,92.25
2022-10-18T21:25:22.223Z,94.25
2022-10-18T21:26:54.745Z,89.25
2022-10-18T21:28:26.551Z,90.25
2022-10-18T21:29:58.382Z,91.25
2022-10-18T21:31:31.694Z,93.00
2022-10-18T21:33:04.539Z,94.75
2022-10-18T21:34:36.383Z,95.00
2022-10-18T21:36:08.271Z,91.00
2022-10-18T21:37:40.036Z,91.00
2022-10-18T21:39:16.670Z,88.50
2022-10-18T21:40:48.437Z,91.25
2022-10-18T21:42:20.188Z,91.75
2022-10-18T21:43:53.500Z,85.75
2022-10-18T21:45:25.202Z,90.25
2022-10-18T21:46:57.062Z,92.50
2022-10-18T21:48:29.050Z,84.75
2022-10-18T21:50:00.817Z,82.00
2022-10-18T21:51:32.628Z,84.75
2022-10-18T21:53:04.344Z,78.75
2022-10-18T21:54:36.125Z,81.75
2022-10-18T21:56:12.890Z,84.25
2022-10-18T21:57:44.651Z,81.50
2022-10-18T21:59:16.414Z,79.25
2022-10-18T22:00:48.206Z,76.80
2022-10-18T22:02:19.917Z,75.80
2022-10-18T22:03:52.877Z,79.00
2022-10-18T22:05:24.619Z,76.40
2022-10-18T22:06:56.298Z,73.40
2022-10-18T22:08:28.804Z,75.80
2022-10-18T22:10:00.539Z,75.20
2022-10-18T22:11:38.353Z,70.25
2022-10-18T22:13:10.073Z,75.75
2022-10-18T22:14:41.872Z,89.00
2022-10-18T22:16:14.541Z,86.25
2022-10-18T22:17:46.259Z,78.40
2022-10-18T22:19:18.039Z,83.25
2022-10-18T22:21:00.190Z,78.80
2022-10-18T22:22:31.930Z,66.00
2022-10-18T22:24:05.479Z,60.25
2022-10-18T22:25:37.204Z,54.75
2022-10-18T22:27:08.935Z,59.75
2022-10-18T22:28:41.149Z,54.50
2022-10-18T22:30:12.898Z,56.50
2022-10-18T22:31:46.207Z,55.50
2022-10-18T22:33:18.098Z,58.75
2022-10-18T22:34:49.772Z,65.00
